Vliegveldwaarnemingen Nederland - (AUTO) METAR

Luchtvaartmeteorologische informatie voor operationeel gebruik en vluchtvoorbereiding is beschikbaar op www.luchtvaartmeteo.nl.

ZCZC
SA281855 EHKD     DE KOOY/DE KOOY   NLD   1 m.
METAR EHKD 281855Z AUTO 22010KT 180V250 9999 FEW010 SCT014 OVC100
16/15 Q0994 GRN=

ZCZC
SA281855 EHFD     F3-FB-1   NLD   50 m.
METAR EHFD 281855Z AUTO 09030KT 4400 -RA FEW011/// SCT014///
OVC016/// 15/14 Q0993=

ZCZC
SA281855 EHAM     AMSTERDAM/SCHIPHOL   NLD   -3 m.
METAR EHAM 281855Z 24009KT 210V280 9999 FEW010 SCT017 BKN023 17/16
Q0994 NOSIG=

ZCZC
SA281855 EHVL     VLIELAND   NLD   10 m.
METAR EHVL 281855Z AUTO 20011KT 9999 DZ FEW010 SCT013 OVC066 16/15
Q0993 GRN=

ZCZC
SA281855 EHJR     K13-A   NLD   37 m.
METAR EHJR 281855Z NIL=

ZCZC
SA281855 EHLW     LEEUWARDEN/LEEUWARDEN   NLD   1 m.
METAR EHLW 281855Z AUTO 23006KT 9999 -RA FEW008 OVC036 17/16 Q0994 BLU=

ZCZC
SA281855 EHDL     ARNHEM/DEELEN   NLD   48 m.
METAR EHDL 281855Z AUTO 20004KT 140V220 5000 BR FEW038 OVC100 18/17
Q0995 WHT=

ZCZC
SA281855 EHGG     GRONINGEN/EELDE   NLD   5 m.
METAR EHGG 281855Z AUTO 27008KT 230V290 9999 -DZ SCT006 SCT007 BKN010
17/16 Q0994 BECMG NSW BKN015=

ZCZC
SA281855 EHSC     LICHTEILAND GOEREE   NLD   22 m.
METAR EHSC 281855Z NIL=

ZCZC
SA281855 EHSA     EURO PLATFORM   NLD   19 m.
METAR EHSA 281855Z NIL=

ZCZC
SA281855 EHWO     WOENSDRECHT/WOENSDRECHT   NLD   19 m.
METAR EHWO 281855Z AUTO 29005KT 240V330 9999 NCD 19/16 Q0995 BLU=

ZCZC
SA281855 EHRD     ROTTERDAM/THE HAGUE AIRPORT   NLD   -5 m.
METAR EHRD 281855Z AUTO 25005KT 220V290 9999 FEW019 SCT022 BKN030
17/16 Q0994 NOSIG=

ZCZC
SA281855 EHGR     GILZE-RIJEN/GILZE-RIJEN   NLD   14 m.
METAR EHGR 281855Z AUTO 29004KT 280V340 9999 FEW027 19/16 Q0995 BLU=

ZCZC
SA281855 EHEH     EINDHOVEN/EINDHOVEN   NLD   22 m.
METAR EHEH 281855Z AUTO 20004KT 180V240 9999 FEW130 20/15 Q0995
BLU 21007KT 9999 SCT020=

ZCZC
SA281855 EHVK     VOLKEL/VOLKEL   NLD   21 m.
METAR EHVK 281855Z AUTO 20005KT 180V240 9999 FEW040 20/15 Q0995 BLU=

ZCZC
SA281855 EHBK     MAASTRICHT/MAASTRICHT-AACHEN   NLD   114 m.
METAR EHBK 281855Z AUTO 00000KT 9999 SCT036 SCT041 21/15 Q0996 TEMPO
6000 SHRA SCT020CB=

ZCZC
SA281855 EHFZ     F16-A   NLD   43 m.
METAR EHFZ 281855Z AUTO 16013KT 9999 -RA BKN009 OVC010 16/15 Q0993
RERA REDZ=

ZCZC
SA281855 EHKV     K14-FA-1C   NLD   41 m.
METAR EHKV 281855Z AUTO 19019KT 9999 FEW008 BKN014 OVC017 16/14
Q0992=

ZCZC
SA281855 EHMG     L9-FF-1   NLD   44 m.
METAR EHMG 281855Z AUTO 21015KT 9999 -RADZ FEW010 17/15 Q0993=

ZCZC
SA281855 EHMA     AWG-1   NLD   40 m.
METAR EHMA 281855Z AUTO 25010KT 9999 DZ FEW003 SCT005 BKN015 17/16
Q0994=

ZCZC
SA281855 EHDV     D15-FA-1   NLD   42 m.
METAR EHDV 281855Z AUTO 12017KT //// // FEW003/// SCT004/// BKN008///
15/15 Q0992 RE//=

ZCZC
SA281855 EHAK     A12-CPP   NLD   48 m.
METAR EHAK 281855Z AUTO 07037KT 5000 -RADZ SCT004/// BKN005///
BKN007/// 13/12 Q0996=

ZCZC
SA281855 EHQE     HOORN-A   NLD   50 m.
METAR EHQE 281855Z AUTO ///20KT //// // FEW012 BKN015 BKN048 16/14
Q0993 RE//=

ZCZC
SA281855 EHJA     J6-A   NLD   45 m.
METAR EHJA 281855Z AUTO 13016KT 7000 SCT003/// OVC004/// 15/15 Q0991=

ZCZC
SA281855 EHPG     P11-B   NLD   41 m.
METAR EHPG 281855Z AUTO 22024KT 9999 FEW010 BKN013 OVC016 16/13
Q0993=

ZCZC
SA281855 EHHW     BUITENGAATS/BG-OHVS2      42 m.
METAR EHHW 281855Z AUTO 12021KT 3300 SHRA ///////// 17/17 Q0993=

ZCZC
SA281855 EHFS     VLISSINGEN AWS   NLD   8 m.
METAR EHFS 281855Z AUTO 27013KT 9999 SCT011/// SCT014/// 18/15 Q0995=

28/06/2017 21.15 uur LT